sensor_id;sensor_type;location;lat;lon;timestamp;pressure;altitude;pressure_sealevel;temperature;humidity
69306;BME280;56427;51.580;4.656;2024-03-17T00:01:44;102327.66;;;6.79;100.00
69306;BME280;56427;51.580;4.656;2024-03-17T00:04:09;102324.19;;;6.79;100.00
69306;BME280;56427;51.580;4.656;2024-03-17T00:06:34;102327.63;;;6.82;100.00
69306;BME280;56427;51.580;4.656;2024-03-17T00:09:00;102326.75;;;6.83;100.00
69306;BME280;56427;51.580;4.656;2024-03-17T00:11:31;102324.19;;;6.82;100.00
69306;BME280;56427;51.580;4.656;2024-03-17T00:13:57;102325.94;;;6.80;100.00
69306;BME280;56427;51.580;4.656;2024-03-17T00:16:22;102325.84;;;6.89;100.00
69306;BME280;56427;51.580;4.656;2024-03-17T00:18:47;102326.63;;;6.98;100.00
69306;BME280;56427;51.580;4.656;2024-03-17T00:21:13;102324.16;;;6.83;100.00
69306;BME280;56427;51.580;4.656;2024-03-17T00:23:41;102316.44;;;6.82;100.00
69306;BME280;56427;51.580;4.656;2024-03-17T00:26:06;102319.91;;;6.79;100.00
69306;BME280;56427;51.580;4.656;2024-03-17T00:28:32;102319.09;;;6.72;100.00
69306;BME280;56427;51.580;4.656;2024-03-17T00:30:57;102319.13;;;6.69;100.00
69306;BME280;56427;51.580;4.656;2024-03-17T00:33:22;102310.59;;;6.63;100.00
69306;BME280;56427;51.580;4.656;2024-03-17T00:35:49;102310.59;;;6.63;100.00
69306;BME280;56427;51.580;4.656;2024-03-17T00:38:14;102307.97;;;6.66;100.00
69306;BME280;56427;51.580;4.656;2024-03-17T00:40:40;102302.91;;;6.55;100.00
69306;BME280;56427;51.580;4.656;2024-03-17T00:43:10;102300.38;;;6.51;100.00
69306;BME280;56427;51.580;4.656;2024-03-17T00:45:36;102298.72;;;6.43;100.00
69306;BME280;56427;51.580;4.656;2024-03-17T00:48:02;102306.47;;;6.42;100.00
69306;BME280;56427;51.580;4.656;2024-03-17T00:50:27;102298.72;;;6.39;100.00
69306;BME280;56427;51.580;4.656;2024-03-17T00:52:53;102301.34;;;6.36;100.00
69306;BME280;56427;51.580;4.656;2024-03-17T00:55:18;102297.91;;;6.32;100.00
69306;BME280;56427;51.580;4.656;2024-03-17T00:57:43;102297.97;;;6.29;100.00
69306;BME280;56427;51.580;4.656;2024-03-17T01:00:09;102300.53;;;6.28;100.00
69306;BME280;56427;51.580;4.656;2024-03-17T01:02:38;102288.50;;;6.30;100.00
69306;BME280;56427;51.580;4.656;2024-03-17T01:05:05;102289.47;;;6.16;100.00
69306;BME280;56427;51.580;4.656;2024-03-17T01:07:31;102284.31;;;6.16;100.00
69306;BME280;56427;51.580;4.656;2024-03-17T01:09:56;102281.72;;;6.18;100.00
69306;BME280;56427;51.580;4.656;2024-03-17T01:12:21;102284.25;;;6.21;100.00
69306;BME280;56427;51.580;4.656;2024-03-17T01:14:47;102280.00;;;6.15;100.00
69306;BME280;56427;51.580;4.656;2024-03-17T01:17:12;102275.72;;;6.13;100.00
69306;BME280;56427;51.580;4.656;2024-03-17T01:19:37;102280.03;;;6.08;100.00
69306;BME280;56427;51.580;4.656;2024-03-17T01:22:03;102280.91;;;6.07;100.00
69306;BME280;56427;51.580;4.656;2024-03-17T01:24:28;102266.41;;;5.93;100.00
69306;BME280;56427;51.580;4.656;2024-03-17T01:27:00;102271.59;;;5.77;100.00
69306;BME280;56427;51.580;4.656;2024-03-17T01:29:26;102272.44;;;5.82;100.00
69306;BME280;56427;51.580;4.656;2024-03-17T01:31:52;102263.81;;;5.89;100.00
69306;BME280;56427;51.580;4.656;2024-03-17T01:34:18;102264.66;;;5.99;100.00
69306;BME280;56427;51.580;4.656;2024-03-17T01:36:44;102266.34;;;6.01;100.00
69306;BME280;56427;51.580;4.656;2024-03-17T01:39:09;102254.25;;;6.14;100.00
69306;BME280;56427;51.580;4.656;2024-03-17T01:41:34;102261.91;;;6.21;100.00
69306;BME280;56427;51.580;4.656;2024-03-17T01:44:00;102248.97;;;6.32;100.00
69306;BME280;56427;51.580;4.656;2024-03-17T01:46:25;102252.38;;;6.36;100.00
69306;BME280;56427;51.580;4.656;2024-03-17T01:48:50;102243.75;;;6.40;100.00
69306;BME280;56427;51.580;4.656;2024-03-17T01:51:17;102244.53;;;6.49;100.00
69306;BME280;56427;51.580;4.656;2024-03-17T01:53:43;102238.56;;;6.44;100.00
69306;BME280;56427;51.580;4.656;2024-03-17T01:56:10;102239.31;;;6.56;100.00
69306;BME280;56427;51.580;4.656;2024-03-17T01:58:36;102237.56;;;6.58;100.00
69306;BME280;56427;51.580;4.656;2024-03-17T02:01:02;102240.09;;;6.64;100.00
69306;BME280;56427;51.580;4.656;2024-03-17T02:03:29;102234.03;;;6.69;100.00
69306;BME280;56427;51.580;4.656;2024-03-17T02:05:54;102228.84;;;6.72;100.00
69306;BME280;56427;51.580;4.656;2024-03-17T02:08:20;102227.91;;;6.78;100.00
69306;BME280;56427;51.580;4.656;2024-03-17T02:10:52;102215.97;;;6.69;100.00
69306;BME280;56427;51.580;4.656;2024-03-17T02:13:17;102215.09;;;6.70;100.00
69306;BME280;56427;51.580;4.656;2024-03-17T02:15:43;102213.31;;;6.77;100.00
69306;BME280;56427;51.580;4.656;2024-03-17T02:18:08;102217.66;;;6.72;100.00
69306;BME280;56427;51.580;4.656;2024-03-17T02:20:33;102209.88;;;6.80;100.00
69306;BME280;56427;51.580;4.656;2024-03-17T02:23:17;102215.81;;;6.85;100.00
69306;BME280;56427;51.580;4.656;2024-03-17T02:25:43;102208.88;;;6.93;100.00
69306;BME280;56427;51.580;4.656;2024-03-17T02:28:11;102202.84;;;6.92;100.00
69306;BME280;56427;51.580;4.656;2024-03-17T02:30:36;102205.56;;;6.80;100.00
69306;BME280;56427;51.580;4.656;2024-03-17T02:33:02;102205.50;;;6.86;100.00
69306;BME280;56427;51.580;4.656;2024-03-17T02:35:28;102201.22;;;6.85;100.00
69306;BME280;56427;51.580;4.656;2024-03-17T02:37:53;102196.16;;;6.74;100.00
69306;BME280;56427;51.580;4.656;2024-03-17T02:40:19;102201.19;;;6.88;100.00
69306;BME280;56427;51.580;4.656;2024-03-17T02:42:44;102196.09;;;6.82;100.00
69306;BME280;56427;51.580;4.656;2024-03-17T02:45:10;102190.91;;;6.84;100.00
69306;BME280;56427;51.580;4.656;2024-03-17T02:47:37;102186.59;;;6.84;100.00
69306;BME280;56427;51.580;4.656;2024-03-17T02:50:02;102190.00;;;6.88;100.00
69306;BME280;56427;51.580;4.656;2024-03-17T02:52:29;102185.69;;;6.88;100.00
69306;BME280;56427;51.580;4.656;2024-03-17T02:54:55;102190.03;;;6.86;100.00
69306;BME280;56427;51.580;4.656;2024-03-17T02:57:22;102186.59;;;6.84;100.00
69306;BME280;56427;51.580;4.656;2024-03-17T02:59:49;102188.28;;;6.88;100.00
69306;BME280;56427;51.580;4.656;2024-03-17T03:02:15;102180.50;;;6.91;100.00
69306;BME280;56427;51.580;4.656;2024-03-17T03:04:40;102189.97;;;6.89;100.00
69306;BME280;56427;51.580;4.656;2024-03-17T03:07:05;102188.25;;;6.90;100.00
69306;BME280;56427;51.580;4.656;2024-03-17T03:09:30;102178.84;;;6.84;100.00
69306;BME280;56427;51.580;4.656;2024-03-17T03:11:57;102166.03;;;6.80;100.00
69306;BME280;56427;51.580;4.656;2024-03-17T03:14:23;102167.00;;;6.68;100.00
69306;BME280;56427;51.580;4.656;2024-03-17T03:16:49;102163.63;;;6.63;100.00
69306;BME280;56427;51.580;4.656;2024-03-17T03:19:15;102163.66;;;6.58;100.00
69306;BME280;56427;51.580;4.656;2024-03-17T03:21:40;102161.09;;;6.57;100.00
69306;BME280;56427;51.580;4.656;2024-03-17T03:24:06;102152.56;;;6.52;100.00
69306;BME280;56427;51.580;4.656;2024-03-17T03:26:31;102153.44;;;6.51;100.00
69306;BME280;56427;51.580;4.656;2024-03-17T03:28:56;102154.31;;;6.49;100.00
69306;BME280;56427;51.580;4.656;2024-03-17T03:31:22;102148.22;;;6.54;100.00
69306;BME280;56427;51.580;4.656;2024-03-17T03:33:47;102143.19;;;6.44;100.00
69306;BME280;56427;51.580;4.656;2024-03-17T03:36:14;102138.91;;;6.40;100.00
69306;BME280;56427;51.580;4.656;2024-03-17T03:38:40;102136.34;;;6.40;100.00
69306;BME280;56427;51.580;4.656;2024-03-17T03:41:10;102131.19;;;6.40;100.00
69306;BME280;56427;51.580;4.656;2024-03-17T03:43:36;102133.72;;;6.45;100.00
69306;BME280;56427;51.580;4.656;2024-03-17T03:46:02;102137.25;;;6.36;100.00
69306;BME280;56427;51.580;4.656;2024-03-17T03:48:27;102126.09;;;6.36;100.00
69306;BME280;56427;51.580;4.656;2024-03-17T03:50:53;102123.59;;;6.27;100.00
69306;BME280;56427;51.580;4.656;2024-03-17T03:53:19;102121.03;;;6.25;100.00
69306;BME280;56427;51.580;4.656;2024-03-17T03:55:45;102127.91;;;6.25;100.00
69306;BME280;56427;51.580;4.656;2024-03-17T03:58:10;102115.03;;;6.25;100.00
69306;BME280;56427;51.580;4.656;2024-03-17T04:00:37;102120.16;;;6.26;100.00
69306;BME280;56427;51.580;4.656;2024-03-17T04:03:04;102115.91;;;6.20;100.00
69306;BME280;56427;51.580;4.656;2024-03-17T04:05:30;102109.03;;;6.21;100.00
69306;BME280;56427;51.580;4.656;2024-03-17T04:07:55;102105.56;;;6.27;100.00
69306;BME280;56427;51.580;4.656;2024-03-17T04:10:21;102110.69;;;6.28;100.00
69306;BME280;56427;51.580;4.656;2024-03-17T04:12:46;102110.69;;;6.28;100.00
69306;BME280;56427;51.580;4.656;2024-03-17T04:15:12;102117.53;;;6.35;100.00
69306;BME280;56427;51.580;4.656;2024-03-17T04:17:39;102117.50;;;6.37;100.00
69306;BME280;56427;51.580;4.656;2024-03-17T04:20:05;102120.88;;;6.43;100.00
69306;BME280;56427;51.580;4.656;2024-03-17T04:22:33;102121.66;;;6.47;100.00
69306;BME280;56427;51.580;4.656;2024-03-17T04:24:59;102124.25;;;6.48;100.00
69306;BME280;56427;51.580;4.656;2024-03-17T04:27:24;102116.53;;;6.48;100.00
69306;BME280;56427;51.580;4.656;2024-03-17T04:29:52;102111.38;;;6.48;100.00
69306;BME280;56427;51.580;4.656;2024-03-17T04:32:17;102113.97;;;6.44;100.00
69306;BME280;56427;51.580;4.656;2024-03-17T04:34:43;102113.09;;;6.45;100.00
69306;BME280;56427;51.580;4.656;2024-03-17T04:37:09;102104.56;;;6.41;100.00
69306;BME280;56427;51.580;4.656;2024-03-17T04:39:36;102106.31;;;6.38;100.00
69306;BME280;56427;51.580;4.656;2024-03-17T04:42:03;102103.69;;;6.42;100.00
69306;BME280;56427;51.580;4.656;2024-03-17T04:44:29;102102.84;;;6.39;100.00
69306;BME280;56427;51.580;4.656;2024-03-17T04:46:54;102098.59;;;6.36;100.00
69306;BME280;56427;51.580;4.656;2024-03-17T04:49:19;102090.88;;;6.36;100.00
69306;BME280;56427;51.580;4.656;2024-03-17T04:51:45;102089.19;;;6.32;100.00
69306;BME280;56427;51.580;4.656;2024-03-17T04:54:10;102091.81;;;6.29;100.00
69306;BME280;56427;51.580;4.656;2024-03-17T04:56:36;102098.66;;;6.30;100.00
69306;BME280;56427;51.580;4.656;2024-03-17T04:59:02;102099.53;;;6.29;100.00
69306;BME280;56427;51.580;4.656;2024-03-17T05:01:27;102096.91;;;6.32;100.00
69306;BME280;56427;51.580;4.656;2024-03-17T05:03:52;102099.56;;;6.25;100.00
69306;BME280;56427;51.580;4.656;2024-03-17T05:06:18;102091.81;;;6.26;100.00
69306;BME280;56427;51.580;4.656;2024-03-17T05:08:43;102085.00;;;6.20;100.00
69306;BME280;56427;51.580;4.656;2024-03-17T05:11:09;102094.44;;;6.21;100.00
69306;BME280;56427;51.580;4.656;2024-03-17T05:13:35;102091.88;;;6.21;100.00
69306;BME280;56427;51.580;4.656;2024-03-17T05:16:01;102086.75;;;6.15;100.00
69306;BME280;56427;51.580;4.656;2024-03-17T05:18:27;102087.63;;;6.17;100.00
69306;BME280;56427;51.580;4.656;2024-03-17T05:21:02;102079.94;;;6.13;100.00
69306;BME280;56427;51.580;4.656;2024-03-17T05:23:29;102087.66;;;6.13;100.00
69306;BME280;56427;51.580;4.656;2024-03-17T05:25:56;102085.06;;;6.17;100.00
69306;BME280;56427;51.580;4.656;2024-03-17T05:28:22;102085.09;;;6.13;100.00
69306;BME280;56427;51.580;4.656;2024-03-17T05:30:48;102091.91;;;6.15;100.00
69306;BME280;56427;51.580;4.656;2024-03-17T05:33:15;102089.31;;;6.20;100.00
69306;BME280;56427;51.580;4.656;2024-03-17T05:35:48;102086.66;;;6.29;100.00
69306;BME280;56427;51.580;4.656;2024-03-17T05:38:14;102089.16;;;6.37;100.00
69306;BME280;56427;51.580;4.656;2024-03-17T05:40:39;102078.78;;;6.43;100.00
69306;BME280;56427;51.580;4.656;2024-03-17T05:43:06;102084.66;;;6.53;100.00
69306;BME280;56427;51.580;4.656;2024-03-17T05:45:32;102088.91;;;6.58;100.00
69306;BME280;56427;51.580;4.656;2024-03-17T05:47:57;102083.69;;;6.63;100.00
69306;BME280;56427;51.580;4.656;2024-03-17T05:50:25;102079.28;;;6.74;100.00
69306;BME280;56427;51.580;4.656;2024-03-17T05:52:52;102086.97;;;6.77;100.00
69306;BME280;56427;51.580;4.656;2024-03-17T05:55:17;102085.16;;;6.85;100.00
69306;BME280;56427;51.580;4.656;2024-03-17T05:57:43;102086.94;;;6.80;100.00
69306;BME280;56427;51.580;4.656;2024-03-17T06:00:09;102092.88;;;6.87;100.00
69306;BME280;56427;51.580;4.656;2024-03-17T06:02:35;102098.75;;;6.96;100.00
69306;BME280;56427;51.580;4.656;2024-03-17T06:05:00;102103.09;;;6.94;100.00
69306;BME280;56427;51.580;4.656;2024-03-17T06:07:29;102109.91;;;6.97;100.00
69306;BME280;56427;51.580;4.656;2024-03-17T06:09:55;102104.75;;;6.98;100.00
69306;BME280;56427;51.580;4.656;2024-03-17T06:12:21;102102.81;;;7.14;100.00
69306;BME280;56427;51.580;4.656;2024-03-17T06:14:46;102103.66;;;7.15;100.00
69306;BME280;56427;51.580;4.656;2024-03-17T06:17:11;102103.75;;;7.09;100.00
69306;BME280;56427;51.580;4.656;2024-03-17T06:19:36;102099.44;;;7.11;100.00
69306;BME280;56427;51.580;4.656;2024-03-17T06:22:02;102100.13;;;7.22;100.00
69306;BME280;56427;51.580;4.656;2024-03-17T06:24:28;102101.66;;;7.37;100.00
69306;BME280;56427;51.580;4.656;2024-03-17T06:26:53;102098.31;;;7.30;100.00
69306;BME280;56427;51.580;4.656;2024-03-17T06:29:19;102104.16;;;7.41;100.00
69306;BME280;56427;51.580;4.656;2024-03-17T06:31:45;102096.22;;;7.53;100.00
69306;BME280;56427;51.580;4.656;2024-03-17T06:34:10;102085.91;;;7.53;100.00
69306;BME280;56427;51.580;4.656;2024-03-17T06:36:36;102073.88;;;7.52;100.00
69306;BME280;56427;51.580;4.656;2024-03-17T06:39:01;102070.19;;;7.69;100.00
69306;BME280;56427;51.580;4.656;2024-03-17T06:41:26;102067.59;;;7.69;100.00
69306;BME280;56427;51.580;4.656;2024-03-17T06:43:52;102061.47;;;7.73;100.00
69306;BME280;56427;51.580;4.656;2024-03-17T06:46:17;102060.28;;;7.94;100.00
69306;BME280;56427;51.580;4.656;2024-03-17T06:48:42;102065.25;;;8.04;100.00
69306;BME280;56427;51.580;4.656;2024-03-17T06:51:08;102059.13;;;8.10;100.00
69306;BME280;56427;51.580;4.656;2024-03-17T06:53:33;102062.22;;;8.29;100.00
69306;BME280;56427;51.580;4.656;2024-03-17T06:55:59;102058.66;;;8.34;100.00
69306;BME280;56427;51.580;4.656;2024-03-17T06:58:26;102064.41;;;8.52;100.00
69306;BME280;56427;51.580;4.656;2024-03-17T07:01:00;102059.91;;;8.60;100.00
69306;BME280;56427;51.580;4.656;2024-03-17T07:03:27;102064.34;;;8.55;100.00
69306;BME280;56427;51.580;4.656;2024-03-17T07:05:54;102072.59;;;8.74;100.00
69306;BME280;56427;51.580;4.656;2024-03-17T07:08:20;102069.13;;;8.75;100.00
69306;BME280;56427;51.580;4.656;2024-03-17T07:11:15;102077.31;;;8.95;100.00
69306;BME280;56427;51.580;4.656;2024-03-17T07:13:42;102076.41;;;9.35;100.00
69306;BME280;56427;51.580;4.656;2024-03-17T07:16:08;102082.28;;;9.43;100.00
69306;BME280;56427;51.580;4.656;2024-03-17T07:18:35;102076.28;;;9.41;100.00
69306;BME280;56427;51.580;4.656;2024-03-17T07:21:02;102077.03;;;9.07;100.00
69306;BME280;56427;51.580;4.656;2024-03-17T07:23:29;102081.81;;;8.87;100.00
69306;BME280;56427;51.580;4.656;2024-03-17T07:25:56;102090.66;;;8.75;100.00
69306;BME280;56427;51.580;4.656;2024-03-17T07:28:22;102082.88;;;8.77;100.00
69306;BME280;56427;51.580;4.656;2024-03-17T07:30:49;102080.88;;;8.89;100.00
69306;BME280;56427;51.580;4.656;2024-03-17T07:33:15;102091.38;;;8.82;100.00
69306;BME280;56427;51.580;4.656;2024-03-17T07:36:07;102091.13;;;9.33;100.00
69306;BME280;56427;51.580;4.656;2024-03-17T07:38:34;102097.34;;;9.63;100.00
69306;BME280;56427;51.580;4.656;2024-03-17T07:41:05;102107.28;;;9.44;100.00
69306;BME280;56427;51.580;4.656;2024-03-17T07:43:33;102100.69;;;9.31;100.00
69306;BME280;56427;51.580;4.656;2024-03-17T07:46:07;102101.88;;;9.53;100.00
69306;BME280;56427;51.580;4.656;2024-03-17T07:48:36;102093.88;;;9.27;100.00
69306;BME280;56427;51.580;4.656;2024-03-17T07:51:10;102096.38;;;9.31;100.00
69306;BME280;56427;51.580;4.656;2024-03-17T07:53:37;102088.41;;;9.39;100.00
69306;BME280;56427;51.580;4.656;2024-03-17T07:56:04;102088.78;;;9.59;100.00
69306;BME280;56427;51.580;4.656;2024-03-17T07:58:31;102089.59;;;9.61;100.00
69306;BME280;56427;51.580;4.656;2024-03-17T08:01:01;102090.63;;;9.54;100.00
69306;BME280;56427;51.580;4.656;2024-03-17T08:03:31;102090.88;;;9.45;100.00
69306;BME280;56427;51.580;4.656;2024-03-17T08:05:57;102090.75;;;9.50;100.00
69306;BME280;56427;51.580;4.656;2024-03-17T08:08:23;102093.44;;;9.45;100.00
69306;BME280;56427;51.580;4.656;2024-03-17T08:10:49;102102.13;;;9.44;100.00
69306;BME280;56427;51.580;4.656;2024-03-17T08:13:15;102103.44;;;9.60;100.00
69306;BME280;56427;51.580;4.656;2024-03-17T08:15:42;102099.34;;;9.52;100.00
69306;BME280;56427;51.580;4.656;2024-03-17T08:18:08;102107.44;;;9.38;100.00
69306;BME280;56427;51.580;4.656;2024-03-17T08:20:40;102094.50;;;9.36;100.00
69306;BME280;56427;51.580;4.656;2024-03-17T08:23:07;102097.13;;;9.35;100.00
69306;BME280;56427;51.580;4.656;2024-03-17T08:25:33;102090.91;;;9.43;100.00
69306;BME280;56427;51.580;4.656;2024-03-17T08:27:59;102094.72;;;9.27;100.00
69306;BME280;56427;51.580;4.656;2024-03-17T08:30:25;102102.16;;;9.41;100.00
69306;BME280;56427;51.580;4.656;2024-03-17T08:32:50;102091.88;;;9.75;100.00
69306;BME280;56427;51.580;4.656;2024-03-17T08:35:15;102091.72;;;9.81;100.00
69306;BME280;56427;51.580;4.656;2024-03-17T08:37:41;102091.63;;;9.84;100.00
69306;BME280;56427;51.580;4.656;2024-03-17T08:40:07;102085.69;;;9.81;100.00
69306;BME280;56427;51.580;4.656;2024-03-17T08:42:32;102089.59;;;9.97;100.00
69306;BME280;56427;51.580;4.656;2024-03-17T08:44:58;102089.13;;;10.48;100.00
69306;BME280;56427;51.580;4.656;2024-03-17T08:47:23;102090.47;;;10.61;100.00
69306;BME280;56427;51.580;4.656;2024-03-17T08:49:51;102085.09;;;10.98;97.36
69306;BME280;56427;51.580;4.656;2024-03-17T08:52:17;102078.13;;;11.55;94.74
69306;BME280;56427;51.580;4.656;2024-03-17T08:54:46;102071.50;;;11.99;89.44
69306;BME280;56427;51.580;4.656;2024-03-17T08:57:12;102067.00;;;12.53;87.32
69306;BME280;56427;51.580;4.656;2024-03-17T08:59:37;102070.13;;;12.14;84.54
69306;BME280;56427;51.580;4.656;2024-03-17T09:02:02;102064.22;;;12.34;85.50
69306;BME280;56427;51.580;4.656;2024-03-17T09:04:28;102066.66;;;12.62;86.03
69306;BME280;56427;51.580;4.656;2024-03-17T09:06:54;102064.59;;;12.93;82.70
69306;BME280;56427;51.580;4.656;2024-03-17T09:09:21;102055.56;;;12.80;85.43
69306;BME280;56427;51.580;4.656;2024-03-17T09:11:46;102057.31;;;12.80;82.74
69306;BME280;56427;51.580;4.656;2024-03-17T09:14:12;102059.59;;;12.17;87.12
69306;BME280;56427;51.580;4.656;2024-03-17T09:16:37;102058.19;;;12.08;88.88
69306;BME280;56427;51.580;4.656;2024-03-17T09:19:02;102053.94;;;11.79;89.70
69306;BME280;56427;51.580;4.656;2024-03-17T09:21:28;102067.75;;;11.55;91.21
69306;BME280;56427;51.580;4.656;2024-03-17T09:23:53;102062.78;;;11.47;92.77
69306;BME280;56427;51.580;4.656;2024-03-17T09:26:18;102056.41;;;11.84;91.83
69306;BME280;56427;51.580;4.656;2024-03-17T09:28:44;102058.50;;;11.73;91.31
69306;BME280;56427;51.580;4.656;2024-03-17T09:31:10;102062.09;;;11.69;91.51
69306;BME280;56427;51.580;4.656;2024-03-17T09:33:36;102066.34;;;11.71;92.41
69306;BME280;56427;51.580;4.656;2024-03-17T09:36:06;102045.81;;;11.90;90.67
69306;BME280;56427;51.580;4.656;2024-03-17T09:38:33;102058.56;;;12.46;89.06
69306;BME280;56427;51.580;4.656;2024-03-17T09:40:59;102058.72;;;12.88;86.01
69306;BME280;56427;51.580;4.656;2024-03-17T09:43:28;102053.94;;;12.78;86.53
69306;BME280;56427;51.580;4.656;2024-03-17T09:45:54;102051.50;;;12.73;86.13
69306;BME280;56427;51.580;4.656;2024-03-17T09:48:26;102055.06;;;12.71;87.45
69306;BME280;56427;51.580;4.656;2024-03-17T09:50:56;102055.22;;;13.11;87.05
69306;BME280;56427;51.580;4.656;2024-03-17T09:53:26;102048.88;;;12.50;87.63
69306;BME280;56427;51.580;4.656;2024-03-17T09:55:56;102049.66;;;12.75;87.36
69306;BME280;56427;51.580;4.656;2024-03-17T09:58:22;102039.69;;;12.86;86.73
69306;BME280;56427;51.580;4.656;2024-03-17T10:00:47;102046.72;;;12.84;86.68
69306;BME280;56427;51.580;4.656;2024-03-17T10:03:41;102046.13;;;12.78;87.84
69306;BME280;56427;51.580;4.656;2024-03-17T10:06:14;102038.84;;;12.64;89.16
69306;BME280;56427;51.580;4.656;2024-03-17T10:09:00;102036.63;;;12.77;89.13
69306;BME280;56427;51.580;4.656;2024-03-17T10:11:41;102036.78;;;12.72;88.94
69306;BME280;56427;51.580;4.656;2024-03-17T10:14:08;102040.69;;;12.84;88.24
69306;BME280;56427;51.580;4.656;2024-03-17T10:16:35;102028.59;;;12.81;87.99
69306;BME280;56427;51.580;4.656;2024-03-17T10:19:14;102041.06;;;12.73;88.99
69306;BME280;56427;51.580;4.656;2024-03-17T10:21:41;102026.84;;;12.82;89.92
69306;BME280;56427;51.580;4.656;2024-03-17T10:24:20;102031.47;;;13.20;86.79
69306;BME280;56427;51.580;4.656;2024-03-17T10:26:51;102030.00;;;13.56;86.38
69306;BME280;56427;51.580;4.656;2024-03-17T10:31:52;102025.69;;;13.34;86.89
69306;BME280;56427;51.580;4.656;2024-03-17T10:34:19;102032.22;;;13.44;86.98
69306;BME280;56427;51.580;4.656;2024-03-17T10:36:45;102033.03;;;13.25;88.17
69306;BME280;56427;51.580;4.656;2024-03-17T10:39:26;102022.78;;;13.62;88.66
69306;BME280;56427;51.580;4.656;2024-03-17T10:42:00;102030.47;;;13.23;89.62
69306;BME280;56427;51.580;4.656;2024-03-17T10:44:27;102025.56;;;13.15;90.71
69306;BME280;56427;51.580;4.656;2024-03-17T10:46:55;102020.81;;;13.03;91.69
69306;BME280;56427;51.580;4.656;2024-03-17T10:49:24;102026.78;;;13.29;91.60
69306;BME280;56427;51.580;4.656;2024-03-17T10:51:57;102023.44;;;13.25;91.77
69306;BME280;56427;51.580;4.656;2024-03-17T10:54:24;102028.47;;;13.30;92.96
69306;BME280;56427;51.580;4.656;2024-03-17T10:56:54;102028.53;;;13.28;92.74
69306;BME280;56427;51.580;4.656;2024-03-17T10:59:28;102019.03;;;13.27;93.20
69306;BME280;56427;51.580;4.656;2024-03-17T11:01:57;102011.22;;;13.27;93.67
69306;BME280;56427;51.580;4.656;2024-03-17T11:04:22;102012.69;;;13.11;95.22
69306;BME280;56427;51.580;4.656;2024-03-17T11:06:48;102014.16;;;13.18;95.35
69306;BME280;56427;51.580;4.656;2024-03-17T11:09:16;102012.69;;;13.11;95.38
69306;BME280;56427;51.580;4.656;2024-03-17T11:11:41;102009.19;;;12.90;96.59
69306;BME280;56427;51.580;4.656;2024-03-17T11:14:18;102006.81;;;13.06;96.30
69306;BME280;56427;51.580;4.656;2024-03-17T11:16:47;101998.97;;;13.29;95.80
69306;BME280;56427;51.580;4.656;2024-03-17T11:19:16;102005.25;;;13.45;94.21
69306;BME280;56427;51.580;4.656;2024-03-17T11:21:42;102009.31;;;13.31;94.22
69306;BME280;56427;51.580;4.656;2024-03-17T11:24:19;102007.06;;;13.43;93.51
69306;BME280;56427;51.580;4.656;2024-03-17T11:26:45;102002.16;;;13.36;94.14
69306;BME280;56427;51.580;4.656;2024-03-17T11:29:29;102001.59;;;13.70;92.70
69306;BME280;56427;51.580;4.656;2024-03-17T11:31:55;102000.06;;;13.66;92.89
69306;BME280;56427;51.580;4.656;2024-03-17T11:37:00;101998.78;;;13.74;93.55
69306;BME280;56427;51.580;4.656;2024-03-17T11:39:57;101992.97;;;14.09;92.01
69306;BME280;56427;51.580;4.656;2024-03-17T11:42:26;101988.94;;;14.20;91.06
69306;BME280;56427;51.580;4.656;2024-03-17T11:45:03;101992.13;;;14.08;90.00
69306;BME280;56427;51.580;4.656;2024-03-17T11:47:35;101987.25;;;13.80;91.46
69306;BME280;56427;51.580;4.656;2024-03-17T11:50:05;101979.44;;;13.60;94.56
69306;BME280;56427;51.580;4.656;2024-03-17T11:52:32;101984.66;;;13.60;94.89
69306;BME280;56427;51.580;4.656;2024-03-17T11:54:57;101977.31;;;13.88;94.45
69306;BME280;56427;51.580;4.656;2024-03-17T11:57:24;101969.13;;;13.97;93.87
69306;BME280;56427;51.580;4.656;2024-03-17T11:59:51;101962.22;;;13.96;93.33
69306;BME280;56427;51.580;4.656;2024-03-17T12:02:22;101968.38;;;13.94;93.52
69306;BME280;56427;51.580;4.656;2024-03-17T12:04:49;101958.59;;;13.99;94.33
69306;BME280;56427;51.580;4.656;2024-03-17T12:07:19;101958.41;;;13.64;94.26
69306;BME280;56427;51.580;4.656;2024-03-17T12:09:49;101955.59;;;14.08;94.57
69306;BME280;56427;51.580;4.656;2024-03-17T12:12:22;101959.69;;;14.32;91.57
69306;BME280;56427;51.580;4.656;2024-03-17T12:14:48;101956.66;;;14.23;91.41
69306;BME280;56427;51.580;4.656;2024-03-17T12:17:20;101948.84;;;14.23;90.89
69306;BME280;56427;51.580;4.656;2024-03-17T12:19:46;101946.06;;;14.46;89.01
69306;BME280;56427;51.580;4.656;2024-03-17T12:22:17;101948.06;;;14.40;89.62
69306;BME280;56427;51.580;4.656;2024-03-17T12:24:48;101947.00;;;14.63;88.57
69306;BME280;56427;51.580;4.656;2024-03-17T12:27:23;101941.97;;;14.39;89.29
69306;BME280;56427;51.580;4.656;2024-03-17T12:29:51;101940.31;;;14.93;87.13
69306;BME280;56427;51.580;4.656;2024-03-17T12:34:47;101940.16;;;14.79;88.96
69306;BME280;56427;51.580;4.656;2024-03-17T12:37:17;101926.84;;;14.47;88.44
69306;BME280;56427;51.580;4.656;2024-03-17T12:39:43;101929.94;;;14.55;89.29
69306;BME280;56427;51.580;4.656;2024-03-17T12:42:10;101926.53;;;14.16;91.62
69306;BME280;56427;51.580;4.656;2024-03-17T12:44:48;101930.31;;;14.48;91.01
69306;BME280;56427;51.580;4.656;2024-03-17T12:47:16;101924.72;;;14.55;90.09
69306;BME280;56427;51.580;4.656;2024-03-17T12:50:01;101924.59;;;14.59;87.81
69306;BME280;56427;51.580;4.656;2024-03-17T12:52:31;101915.97;;;14.56;87.76
69306;BME280;56427;51.580;4.656;2024-03-17T12:55:00;101905.88;;;14.85;86.59
69306;BME280;56427;51.580;4.656;2024-03-17T12:57:45;101907.34;;;15.25;85.29
69306;BME280;56427;51.580;4.656;2024-03-17T13:00:30;101906.19;;;15.48;84.92